Terminal Aerodrome Forecast
Issued by NWS Sterling, VA

Current Version | Previous Version | Text Only | Print | Product List | Glossary Off
Versions: 1 2 3 4 5 6 7 8 9 10 11 12 13 14 15 16 17 18 19 20 21 22 23 24

000
FTUS41 KLWX 212300
TAFIAD
TAF
KIAD 212334Z 2200/2306 00000KT P6SM BKN250
     FM220900 00000KT P6SM SCT050
     FM221000 00000KT P6SM BKN070
     FM221400 VRB03KT 6SM -FZRAPL SCT020 OVC080
     FM221700 06004KT 5SM -RA SCT015 OVC040
     FM230100 02005KT 6SM -RA OVC010
     FM230400 01005KT P6SM OVC008=

USA.gov is the U.S. government's official web portal to all federal, state and local government web resources and services.